createdAt,value
2018-12-12T00:01:37.964Z,3.80
2018-12-12T00:04:05.366Z,3.70
2018-12-12T00:06:32.582Z,3.80
2018-12-12T00:08:59.833Z,3.70
2018-12-12T00:11:27.132Z,3.80
2018-12-12T00:13:54.383Z,3.80
2018-12-12T00:16:21.605Z,3.80
2018-12-12T00:18:48.874Z,3.70
2018-12-12T00:21:16.121Z,3.70
2018-12-12T00:23:43.390Z,3.70
2018-12-12T00:26:10.603Z,3.70
2018-12-12T00:28:37.840Z,3.70
2018-12-12T00:31:05.092Z,3.70
2018-12-12T00:33:32.350Z,3.60
2018-12-12T00:35:59.603Z,3.70
2018-12-12T00:38:27.136Z,3.70
2018-12-12T00:40:54.432Z,3.70
2018-12-12T00:43:21.640Z,3.60
2018-12-12T00:45:48.845Z,3.60
2018-12-12T00:48:16.129Z,3.60
2018-12-12T00:50:43.473Z,3.50
2018-12-12T00:53:10.729Z,3.50
2018-12-12T00:55:38.077Z,3.40
2018-12-12T00:58:05.281Z,3.40
2018-12-12T01:00:32.515Z,3.40
2018-12-12T01:02:59.757Z,3.40
2018-12-12T01:05:27.217Z,3.30
2018-12-12T01:07:54.554Z,3.30
2018-12-12T01:10:22.036Z,3.20
2018-12-12T01:12:49.269Z,3.20
2018-12-12T01:15:16.627Z,3.20
2018-12-12T01:17:44.244Z,3.10
2018-12-12T01:20:11.735Z,3.10
2018-12-12T01:22:39.001Z,3.10
2018-12-12T01:25:06.381Z,3.00
2018-12-12T01:27:33.620Z,3.00
2018-12-12T01:30:00.894Z,3.00
2018-12-12T01:32:28.157Z,3.00
2018-12-12T01:34:55.417Z,3.00
2018-12-12T01:37:22.832Z,3.00
2018-12-12T01:39:50.221Z,3.00
2018-12-12T01:42:17.466Z,3.00
2018-12-12T01:44:44.717Z,3.00
2018-12-12T01:47:12.060Z,3.00
2018-12-12T01:49:39.445Z,3.00
2018-12-12T01:52:06.792Z,3.00
2018-12-12T01:54:34.080Z,2.90
2018-12-12T01:57:01.296Z,2.90
2018-12-12T01:59:28.528Z,2.80
2018-12-12T02:01:55.784Z,2.80
2018-12-12T02:04:23.001Z,2.80
2018-12-12T02:06:50.232Z,2.80
2018-12-12T02:09:17.473Z,2.90
2018-12-12T02:11:44.790Z,2.90
2018-12-12T02:14:12.135Z,2.80
2018-12-12T02:16:39.459Z,2.80
2018-12-12T02:19:07.114Z,2.80
2018-12-12T02:21:34.451Z,2.70
2018-12-12T02:24:01.697Z,2.60
2018-12-12T02:26:29.046Z,2.60
2018-12-12T02:28:56.268Z,2.50
2018-12-12T02:31:23.525Z,2.50
2018-12-12T02:33:50.757Z,2.50
2018-12-12T02:36:18.120Z,2.50
2018-12-12T02:38:45.457Z,2.50
2018-12-12T02:41:12.665Z,2.50
2018-12-12T02:43:39.900Z,2.50
2018-12-12T02:46:07.267Z,2.50
2018-12-12T02:48:34.484Z,2.40
2018-12-12T02:51:01.693Z,2.50
2018-12-12T02:53:28.968Z,2.50
2018-12-12T02:55:56.185Z,2.40
2018-12-12T02:58:23.420Z,2.40
2018-12-12T03:00:50.643Z,2.40
2018-12-12T03:03:17.894Z,2.40
2018-12-12T03:05:45.088Z,2.40
2018-12-12T03:08:12.378Z,2.40
2018-12-12T03:10:39.702Z,2.40
2018-12-12T03:13:06.979Z,2.40
2018-12-12T03:15:34.238Z,2.30
2018-12-12T03:18:01.480Z,2.30
2018-12-12T03:20:28.666Z,2.40
2018-12-12T03:22:55.901Z,2.30
2018-12-12T03:25:23.248Z,2.30
2018-12-12T03:27:50.478Z,2.30
2018-12-12T03:30:17.760Z,2.30
2018-12-12T03:32:44.993Z,2.30
2018-12-12T03:35:12.305Z,2.30
2018-12-12T03:37:39.593Z,2.30
2018-12-12T03:40:07.349Z,2.30
2018-12-12T03:42:35.015Z,2.30
2018-12-12T03:45:02.481Z,2.30
2018-12-12T03:47:29.711Z,2.40
2018-12-12T03:49:56.918Z,2.40
2018-12-12T03:52:24.280Z,2.40
2018-12-12T03:54:51.573Z,2.40
2018-12-12T03:57:19.437Z,2.40
2018-12-12T03:59:46.680Z,2.40
2018-12-12T04:02:13.882Z,2.30
2018-12-12T04:04:41.099Z,2.30
2018-12-12T04:07:08.608Z,2.30
2018-12-12T04:09:35.828Z,2.30
2018-12-12T04:12:03.165Z,2.30
2018-12-12T04:14:30.502Z,2.30
2018-12-12T04:16:57.854Z,2.30
2018-12-12T04:19:25.327Z,2.30
2018-12-12T04:21:52.702Z,2.30
2018-12-12T04:24:22.557Z,2.20
2018-12-12T04:26:49.786Z,2.20
2018-12-12T04:29:17.019Z,2.10
2018-12-12T04:31:44.238Z,2.10
2018-12-12T04:34:11.455Z,2.10
2018-12-12T04:36:38.817Z,2.00
2018-12-12T04:39:06.821Z,1.90
2018-12-12T04:41:34.099Z,1.90
2018-12-12T04:44:01.448Z,1.80
2018-12-12T04:46:28.825Z,1.70
2018-12-12T04:48:56.051Z,1.70
2018-12-12T04:51:23.430Z,1.70
2018-12-12T04:53:50.624Z,1.60
2018-12-12T04:56:17.828Z,1.50
2018-12-12T04:58:45.058Z,1.40
2018-12-12T05:01:12.274Z,1.30
2018-12-12T05:03:39.598Z,1.20
2018-12-12T05:06:06.854Z,1.20
2018-12-12T05:08:34.060Z,1.20
2018-12-12T05:11:01.393Z,1.20
2018-12-12T05:13:28.665Z,1.10
2018-12-12T05:15:55.872Z,1.10
2018-12-12T05:18:23.142Z,1.20
2018-12-12T05:20:50.416Z,1.20
2018-12-12T05:23:17.620Z,1.20
2018-12-12T05:25:44.816Z,1.10
2018-12-12T05:28:12.052Z,1.00
2018-12-12T05:30:39.538Z,1.00
2018-12-12T05:33:06.747Z,1.00
2018-12-12T05:35:33.975Z,0.80
2018-12-12T05:38:01.229Z,0.70
2018-12-12T05:40:28.713Z,0.60
2018-12-12T05:42:55.958Z,0.60
2018-12-12T05:45:23.563Z,0.50
2018-12-12T05:47:50.897Z,0.60
2018-12-12T05:52:52.192Z,0.30
2018-12-12T05:55:19.451Z,0.30
2018-12-12T05:57:46.649Z,0.40
2018-12-12T06:00:14.564Z,0.40
2018-12-12T06:02:41.943Z,0.40
2018-12-12T06:05:09.403Z,0.40
2018-12-12T06:07:36.651Z,0.50
2018-12-12T06:10:05.317Z,0.60
2018-12-12T06:12:32.560Z,0.50
2018-12-12T06:14:59.835Z,0.60
2018-12-12T06:17:27.095Z,0.60
2018-12-12T06:19:54.752Z,0.60
2018-12-12T06:22:22.331Z,1.00
2018-12-12T06:24:49.648Z,1.00
2018-12-12T06:27:17.018Z,0.90
2018-12-12T06:29:44.253Z,1.00
2018-12-12T06:32:11.536Z,1.00
2018-12-12T06:34:38.756Z,1.00
2018-12-12T06:37:06.004Z,1.10
2018-12-12T06:39:33.299Z,1.20
2018-12-12T06:42:00.572Z,1.20
2018-12-12T06:44:27.816Z,1.20
2018-12-12T06:46:55.079Z,1.20
2018-12-12T06:49:22.873Z,1.20
2018-12-12T06:51:50.168Z,1.20
2018-12-12T06:54:17.540Z,1.20
2018-12-12T06:56:44.814Z,1.20
2018-12-12T06:59:12.249Z,1.10
2018-12-12T07:01:39.882Z,1.10
2018-12-12T07:04:07.108Z,1.30
2018-12-12T07:06:34.348Z,1.30
2018-12-12T07:09:01.605Z,1.30
2018-12-12T07:11:28.839Z,1.20
2018-12-12T07:13:56.078Z,1.20
2018-12-12T07:16:23.369Z,1.10
2018-12-12T07:18:51.255Z,1.00
2018-12-12T07:21:18.501Z,1.00
2018-12-12T07:23:45.752Z,0.90
2018-12-12T07:26:13.097Z,0.90
2018-12-12T07:28:40.386Z,0.90
2018-12-12T07:31:07.800Z,0.80
2018-12-12T07:33:35.068Z,0.70
2018-12-12T07:36:02.340Z,0.60
2018-12-12T07:38:29.608Z,0.60
2018-12-12T07:40:56.857Z,0.70
2018-12-12T07:43:24.169Z,0.90
2018-12-12T07:45:51.483Z,1.00
2018-12-12T07:48:18.763Z,1.00
2018-12-12T07:50:45.962Z,1.10
2018-12-12T07:53:13.344Z,1.10
2018-12-12T07:55:40.595Z,1.00
2018-12-12T07:58:08.363Z,1.00
2018-12-12T08:00:35.753Z,1.00
2018-12-12T08:03:06.297Z,0.90
2018-12-12T08:05:32.446Z,0.90
2018-12-12T08:07:59.918Z,0.90
2018-12-12T08:10:27.753Z,0.90
2018-12-12T08:12:55.017Z,1.10
2018-12-12T08:15:22.293Z,1.10
2018-12-12T08:17:49.552Z,1.10
2018-12-12T08:20:16.865Z,1.20
2018-12-12T08:22:44.165Z,1.30
2018-12-12T08:25:11.523Z,1.30
2018-12-12T08:27:39.471Z,1.20
2018-12-12T08:30:07.226Z,1.30
2018-12-12T08:32:34.580Z,1.20
2018-12-12T08:35:01.870Z,1.20
2018-12-12T08:37:29.222Z,1.20
2018-12-12T08:39:56.488Z,1.30
2018-12-12T08:42:23.756Z,1.40
2018-12-12T08:44:51.056Z,1.50
2018-12-12T08:47:18.305Z,1.50
2018-12-12T08:49:45.552Z,1.60
2018-12-12T08:52:12.830Z,1.70
2018-12-12T08:54:40.712Z,1.70
2018-12-12T08:57:08.425Z,1.70
2018-12-12T08:59:35.721Z,1.70
2018-12-12T09:02:03.084Z,1.80
2018-12-12T09:04:30.431Z,1.80
2018-12-12T09:06:57.688Z,1.80
2018-12-12T09:09:24.933Z,1.90
2018-12-12T09:11:52.198Z,1.90
2018-12-12T09:14:19.590Z,2.00
2018-12-12T09:16:46.805Z,1.90
2018-12-12T09:19:14.017Z,2.10
2018-12-12T09:21:41.404Z,2.10
2018-12-12T09:24:08.656Z,2.20
2018-12-12T09:26:35.917Z,2.20
2018-12-12T09:29:03.341Z,2.20
2018-12-12T09:31:30.693Z,2.30
2018-12-12T09:33:58.082Z,2.40
2018-12-12T09:36:25.508Z,2.40
2018-12-12T09:38:52.724Z,2.50
2018-12-12T09:41:19.924Z,2.50
2018-12-12T09:43:47.228Z,2.60
2018-12-12T09:46:14.465Z,2.70
2018-12-12T09:48:41.717Z,2.80
2018-12-12T09:51:09.009Z,2.90
2018-12-12T09:53:36.225Z,3.00
2018-12-12T09:56:03.691Z,3.00
2018-12-12T09:58:30.966Z,3.00
2018-12-12T10:00:58.221Z,3.10
2018-12-12T10:03:30.979Z,3.10
2018-12-12T10:05:54.708Z,3.20
2018-12-12T10:08:21.953Z,3.30
2018-12-12T10:10:49.196Z,3.40
2018-12-12T10:13:16.513Z,3.40
2018-12-12T10:15:43.889Z,3.40
2018-12-12T10:18:11.277Z,3.30
2018-12-12T10:20:38.642Z,3.30
2018-12-12T10:23:06.144Z,3.30
2018-12-12T10:25:33.970Z,3.30
2018-12-12T10:28:01.216Z,3.30
2018-12-12T10:30:28.439Z,3.40
2018-12-12T10:32:55.714Z,3.40
2018-12-12T10:35:22.968Z,3.40
2018-12-12T10:37:50.245Z,3.40
2018-12-12T10:40:17.485Z,3.40
2018-12-12T10:42:44.804Z,3.40
2018-12-12T10:45:12.319Z,3.40
2018-12-12T10:47:39.528Z,3.50
2018-12-12T10:50:08.629Z,3.50
2018-12-12T10:52:36.035Z,3.60
2018-12-12T10:55:03.855Z,3.60
2018-12-12T10:57:31.118Z,3.60
2018-12-12T10:59:58.350Z,3.60
2018-12-12T11:02:31.505Z,3.60
2018-12-12T11:04:59.033Z,3.70
2018-12-12T11:07:26.573Z,3.80
2018-12-12T11:09:53.867Z,3.90
2018-12-12T11:12:21.230Z,3.90
2018-12-12T11:14:48.480Z,3.90
2018-12-12T11:17:15.752Z,3.90
2018-12-12T11:19:43.035Z,3.90
2018-12-12T11:22:10.347Z,4.00
2018-12-12T11:24:37.615Z,4.00
2018-12-12T11:27:04.869Z,4.10
2018-12-12T11:29:32.095Z,4.20
2018-12-12T11:31:59.381Z,4.30
2018-12-12T11:34:26.765Z,4.30
2018-12-12T11:36:54.024Z,4.30
2018-12-12T11:39:21.310Z,4.30
2018-12-12T11:41:48.541Z,4.40
2018-12-12T11:44:15.779Z,4.40
2018-12-12T11:46:43.016Z,4.40
2018-12-12T11:49:10.256Z,4.40
2018-12-12T11:51:37.493Z,4.40
2018-12-12T11:54:04.781Z,4.40
2018-12-12T11:56:32.000Z,4.30
2018-12-12T11:58:59.215Z,4.30
2018-12-12T12:01:26.474Z,4.30
2018-12-12T12:03:56.683Z,4.30
2018-12-12T12:06:23.252Z,4.30
2018-12-12T12:08:50.659Z,4.20
2018-12-12T12:11:18.020Z,4.20
2018-12-12T12:13:45.298Z,4.20
2018-12-12T12:16:12.549Z,4.20
2018-12-12T12:18:39.794Z,4.20
2018-12-12T12:21:07.001Z,4.20
2018-12-12T12:23:34.249Z,4.20
2018-12-12T12:26:01.485Z,4.10
2018-12-12T12:28:28.772Z,4.20
2018-12-12T12:30:56.078Z,4.10
2018-12-12T12:33:23.316Z,4.20
2018-12-12T12:35:50.533Z,4.20
2018-12-12T12:38:18.062Z,4.20
2018-12-12T12:40:45.293Z,4.10
2018-12-12T12:43:12.612Z,4.10
2018-12-12T12:45:40.053Z,4.10
2018-12-12T12:48:07.255Z,4.10
2018-12-12T12:50:34.496Z,4.10
2018-12-12T12:53:01.795Z,4.00
2018-12-12T12:55:29.018Z,4.00
2018-12-12T12:57:56.298Z,3.90
2018-12-12T13:00:23.540Z,3.90
2018-12-12T13:02:50.778Z,3.90
2018-12-12T13:05:18.023Z,3.90
2018-12-12T13:07:45.284Z,4.00
2018-12-12T13:10:12.631Z,3.90
2018-12-12T13:12:39.866Z,3.90
2018-12-12T13:15:07.241Z,4.00
2018-12-12T13:17:34.514Z,4.00
2018-12-12T13:20:01.886Z,4.00
2018-12-12T13:22:29.228Z,4.00
2018-12-12T13:24:56.456Z,3.90
2018-12-12T13:27:23.692Z,3.90
2018-12-12T13:29:50.960Z,3.90
2018-12-12T13:32:18.218Z,3.90
2018-12-12T13:34:45.568Z,3.80
2018-12-12T13:37:12.908Z,3.70
2018-12-12T13:39:40.114Z,3.70
2018-12-12T13:42:07.376Z,3.60
2018-12-12T13:44:34.707Z,3.50
2018-12-12T13:47:01.953Z,3.50
2018-12-12T13:49:29.189Z,3.40
2018-12-12T13:51:56.620Z,3.30
2018-12-12T13:54:23.842Z,3.30
2018-12-12T13:56:51.050Z,3.30
2018-12-12T13:59:18.317Z,3.20
2018-12-12T14:01:45.549Z,3.20
2018-12-12T14:04:12.773Z,3.20
2018-12-12T14:06:40.030Z,3.10
2018-12-12T14:09:07.494Z,3.10
2018-12-12T14:11:34.724Z,3.10
2018-12-12T14:14:02.005Z,3.00
2018-12-12T14:16:29.257Z,2.90
2018-12-12T14:18:56.507Z,2.80
2018-12-12T14:21:23.874Z,2.70
2018-12-12T14:23:51.090Z,2.60
2018-12-12T14:26:18.373Z,2.60
2018-12-12T14:28:45.675Z,2.60
2018-12-12T14:31:12.909Z,2.60
2018-12-12T14:33:40.137Z,2.50
2018-12-12T14:36:07.396Z,2.40
2018-12-12T14:38:34.643Z,2.40
2018-12-12T14:41:01.888Z,2.30
2018-12-12T14:43:29.105Z,2.20
2018-12-12T14:45:56.476Z,2.10
2018-12-12T14:48:24.720Z,2.00
2018-12-12T14:50:53.065Z,2.00
2018-12-12T14:53:20.294Z,2.00
2018-12-12T14:55:47.500Z,1.90
2018-12-12T14:58:14.753Z,1.70
2018-12-12T15:00:41.977Z,1.60
2018-12-12T15:03:09.220Z,1.60
2018-12-12T15:05:36.467Z,1.50
2018-12-12T15:08:03.928Z,1.40
2018-12-12T15:10:31.321Z,1.50
2018-12-12T15:12:58.553Z,1.50
2018-12-12T15:15:25.780Z,1.50
2018-12-12T15:17:53.004Z,1.50
2018-12-12T15:20:20.616Z,1.40
2018-12-12T15:22:47.862Z,1.40
2018-12-12T15:25:15.232Z,1.30
2018-12-12T15:27:42.531Z,1.20
2018-12-12T15:30:09.852Z,1.10
2018-12-12T15:32:37.126Z,1.10
2018-12-12T15:35:04.508Z,1.00
2018-12-12T15:37:31.729Z,0.90
2018-12-12T15:39:58.940Z,0.80
2018-12-12T15:42:26.198Z,0.90
2018-12-12T15:44:53.439Z,0.80
2018-12-12T15:47:20.920Z,0.80
2018-12-12T15:49:48.191Z,0.90
2018-12-12T15:52:15.533Z,1.00
2018-12-12T15:54:42.771Z,0.90
2018-12-12T15:57:10.071Z,0.90
2018-12-12T15:59:37.319Z,0.90
2018-12-12T16:02:04.530Z,1.00
2018-12-12T16:04:31.915Z,0.90
2018-12-12T16:06:59.168Z,0.90
2018-12-12T16:09:26.377Z,0.80
2018-12-12T16:11:53.650Z,0.80
2018-12-12T16:14:20.870Z,0.70
2018-12-12T16:16:48.432Z,0.60
2018-12-12T16:19:15.744Z,0.60
2018-12-12T16:21:43.041Z,0.60
2018-12-12T16:24:10.660Z,0.50
2018-12-12T16:26:38.113Z,0.40
2018-12-12T16:29:05.344Z,0.40
2018-12-12T16:31:32.679Z,0.30
2018-12-12T16:33:59.925Z,0.20
2018-12-12T16:36:27.369Z,0.20
2018-12-12T16:38:54.602Z,0.20
2018-12-12T16:41:21.959Z,0.10
2018-12-12T16:43:49.468Z,0.20
2018-12-12T16:46:16.838Z,0.30
2018-12-12T16:48:44.153Z,0.50
2018-12-12T16:51:11.400Z,0.50
2018-12-12T16:53:40.089Z,0.60
2018-12-12T16:56:07.710Z,0.60
2018-12-12T16:58:34.942Z,0.70
2018-12-12T17:01:02.382Z,0.70
2018-12-12T17:03:31.366Z,0.70
2018-12-12T17:06:04.106Z,0.80
2018-12-12T17:08:31.333Z,0.80
2018-12-12T17:10:58.562Z,0.90
2018-12-12T17:13:25.926Z,0.90
2018-12-12T17:15:53.202Z,0.80
2018-12-12T17:18:20.415Z,0.80
2018-12-12T17:20:47.657Z,0.80
2018-12-12T17:23:14.907Z,0.80
2018-12-12T17:25:42.126Z,0.90
2018-12-12T17:28:09.331Z,0.90
2018-12-12T17:30:36.642Z,0.90
2018-12-12T17:33:03.862Z,0.80
2018-12-12T17:35:31.132Z,0.80
2018-12-12T17:37:58.384Z,0.80
2018-12-12T17:40:25.715Z,0.90
2018-12-12T17:42:52.952Z,0.90
2018-12-12T17:45:20.241Z,0.90
2018-12-12T17:47:47.511Z,0.90
2018-12-12T17:50:14.748Z,0.90
2018-12-12T17:52:42.001Z,0.90
2018-12-12T17:55:09.316Z,0.80
2018-12-12T17:57:36.529Z,0.80
2018-12-12T18:00:04.596Z,0.80
2018-12-12T18:02:31.851Z,0.80
2018-12-12T18:04:59.088Z,0.80
2018-12-12T18:07:27.158Z,0.90
2018-12-12T18:09:54.370Z,0.90
2018-12-12T18:12:21.637Z,1.00
2018-12-12T18:14:48.897Z,1.00
2018-12-12T18:17:16.241Z,1.00
2018-12-12T18:19:43.493Z,1.10
2018-12-12T18:22:10.786Z,1.10
2018-12-12T18:24:38.105Z,1.10
2018-12-12T18:27:05.337Z,1.10
2018-12-12T18:29:32.575Z,1.10
2018-12-12T18:31:59.798Z,1.10
2018-12-12T18:34:27.048Z,1.20
2018-12-12T18:36:54.305Z,1.10
2018-12-12T18:39:21.517Z,1.10
2018-12-12T18:41:48.752Z,1.20
2018-12-12T18:44:16.001Z,1.20
2018-12-12T18:46:43.397Z,1.20
2018-12-12T18:49:10.606Z,1.20
2018-12-12T18:51:38.017Z,1.20
2018-12-12T18:54:05.215Z,1.20
2018-12-12T18:56:32.479Z,1.20
2018-12-12T18:58:59.762Z,1.20
2018-12-12T19:01:27.062Z,1.30
2018-12-12T19:03:54.289Z,1.30
2018-12-12T19:06:21.586Z,1.30
2018-12-12T19:08:48.942Z,1.30
2018-12-12T19:11:16.213Z,1.30
2018-12-12T19:13:43.578Z,1.30
2018-12-12T19:16:10.925Z,1.30
2018-12-12T19:18:38.144Z,1.30
2018-12-12T19:21:05.431Z,1.30
2018-12-12T19:23:32.811Z,1.20
2018-12-12T19:26:00.122Z,1.20
2018-12-12T19:28:27.382Z,1.20
2018-12-12T19:30:54.604Z,1.10
2018-12-12T19:33:21.844Z,1.10
2018-12-12T19:35:49.120Z,1.00
2018-12-12T19:38:16.385Z,0.90
2018-12-12T19:40:43.666Z,0.80
2018-12-12T19:43:10.956Z,0.70
2018-12-12T19:45:38.215Z,0.60
2018-12-12T19:48:05.604Z,0.50
2018-12-12T19:50:32.857Z,0.40
2018-12-12T19:53:00.110Z,0.30
2018-12-12T19:55:27.390Z,0.20
2018-12-12T19:57:54.712Z,0.10
2018-12-12T20:00:22.045Z,0.10
2018-12-12T20:02:49.293Z,0.10
2018-12-12T20:05:16.581Z,0.10
2018-12-12T20:07:43.850Z,0.10
2018-12-12T20:10:11.346Z,0.10
2018-12-12T20:12:38.752Z,0.00
2018-12-12T20:15:08.942Z,0.00
2018-12-12T20:17:36.199Z,-0.10
2018-12-12T20:20:04.285Z,-0.10
2018-12-12T20:22:31.520Z,-0.20
2018-12-12T20:24:58.895Z,-0.30
2018-12-12T20:27:26.312Z,-0.30
2018-12-12T20:29:53.618Z,-0.40
2018-12-12T20:34:48.187Z,-0.50
2018-12-12T20:37:15.551Z,-0.50
2018-12-12T20:39:42.798Z,-0.50
2018-12-12T20:42:10.052Z,-0.50
2018-12-12T20:44:37.276Z,-0.60
2018-12-12T20:47:04.490Z,-0.60
2018-12-12T20:49:31.760Z,-0.50
2018-12-12T20:51:59.045Z,-0.60
2018-12-12T20:54:26.283Z,-0.50
2018-12-12T20:56:53.791Z,-0.60
2018-12-12T20:59:21.121Z,-0.60
2018-12-12T21:01:48.365Z,-0.60
2018-12-12T21:04:15.629Z,-0.70
2018-12-12T21:06:42.922Z,-0.70
2018-12-12T21:09:10.150Z,-0.70
2018-12-12T21:11:37.396Z,-0.80
2018-12-12T21:14:04.766Z,-0.80
2018-12-12T21:16:31.993Z,-0.80
2018-12-12T21:18:59.248Z,-0.80
2018-12-12T21:21:26.503Z,-0.90
2018-12-12T21:23:53.853Z,-0.90
2018-12-12T21:26:21.825Z,-0.90
2018-12-12T21:28:49.037Z,-0.90
2018-12-12T21:31:16.273Z,-0.90
2018-12-12T21:33:43.567Z,-0.90
2018-12-12T21:36:10.792Z,-1.00
2018-12-12T21:38:38.149Z,-1.00
2018-12-12T21:41:05.473Z,-1.00
2018-12-12T21:43:32.724Z,-1.10
2018-12-12T21:46:01.274Z,-1.10
2018-12-12T21:48:28.886Z,-1.10
2018-12-12T21:50:56.145Z,-1.20
2018-12-12T21:53:23.419Z,-1.20
2018-12-12T21:55:50.703Z,-1.20
2018-12-12T21:58:17.949Z,-1.20
2018-12-12T22:00:45.179Z,-1.30
2018-12-12T22:03:12.580Z,-1.30
2018-12-12T22:05:39.814Z,-1.40
2018-12-12T22:08:07.037Z,-1.40
2018-12-12T22:10:34.303Z,-1.40
2018-12-12T22:13:01.512Z,-1.30
2018-12-12T22:15:28.733Z,-1.40
2018-12-12T22:17:56.056Z,-1.40
2018-12-12T22:20:23.501Z,-1.40
2018-12-12T22:22:50.865Z,-1.50
2018-12-12T22:25:18.142Z,-1.50
2018-12-12T22:27:45.381Z,-1.40
2018-12-12T22:30:12.723Z,-1.40
2018-12-12T22:32:39.972Z,-1.40
2018-12-12T22:35:07.313Z,-1.40
2018-12-12T22:37:34.662Z,-1.40
2018-12-12T22:40:01.942Z,-1.40
2018-12-12T22:42:29.139Z,-1.40
2018-12-12T22:44:56.417Z,-1.40
2018-12-12T22:47:23.708Z,-1.30
2018-12-12T22:49:50.929Z,-1.30
2018-12-12T22:52:18.150Z,-1.40
2018-12-12T22:54:45.401Z,-1.40
2018-12-12T22:57:12.617Z,-1.30
2018-12-12T22:59:39.841Z,-1.20
2018-12-12T23:02:08.009Z,-1.20
2018-12-12T23:04:35.448Z,-1.20
2018-12-12T23:07:02.831Z,-1.20
2018-12-12T23:09:30.075Z,-1.20
2018-12-12T23:11:57.431Z,-1.10
2018-12-12T23:14:25.178Z,-1.20
2018-12-12T23:16:52.573Z,-1.20
2018-12-12T23:19:19.770Z,-1.20
2018-12-12T23:21:47.003Z,-1.20
2018-12-12T23:24:14.273Z,-1.20
2018-12-12T23:26:41.481Z,-1.20
2018-12-12T23:29:08.732Z,-1.30
2018-12-12T23:31:36.236Z,-1.30
2018-12-12T23:34:03.566Z,-1.20
2018-12-12T23:36:30.802Z,-1.20
2018-12-12T23:38:58.028Z,-1.30
2018-12-12T23:41:25.220Z,-1.30
2018-12-12T23:43:52.465Z,-1.30
2018-12-12T23:46:19.826Z,-1.20
2018-12-12T23:48:47.085Z,-1.10
2018-12-12T23:51:14.422Z,-1.20
2018-12-12T23:53:41.693Z,-1.10
2018-12-12T23:56:08.894Z,-1.10
2018-12-12T23:58:36.099Z,-0.90
